Terminal Aerodrome Forecast
Issued by NWS Albany, NY

Home | Current Version | Previous Version | Text Only | Print | Product List | Glossary On
Versions: 1 2 3 4 5 6 7 8 9 10 11 12 13 14 15 16
270
FTUS41 KALY 261158 CCA
TAFPOU
TAF COR
KPOU 261158Z 2612/2712 00000KT P6SM SKC
     FM270800 00000KT 6SM BR SKC=

USA.gov is the U.S. government's official web portal to all federal, state and local government web resources and services.